Time;durP1;ratioP1;P1;durP2;ratioP2;P2;SDS_P1;SDS_P2;PMS_P1;PMS_P2;Temp;Humidity;BMP_temperature;BMP_pressure;BME280_temperature;BME280_humidity;BME280_pressure;Samples;Min_cycle;Max_cycle;Signal;HPM_P1;HPM_P2
2023/08/04 00:01:10;;;;;;;1999.90;999.90;;;17.40;99.90;;;;;;4990466;28;20477;-68
2023/08/04 00:03:38;;;;;;;1999.90;999.90;;;17.40;99.90;;;;;;5003928;28;20446;-67
2023/08/04 00:06:08;;;;;;;1999.90;999.90;;;17.40;99.90;;;;;;4995621;28;20441;-67
2023/08/04 00:08:35;;;;;;;1999.90;999.90;;;17.40;99.90;;;;;;4985670;28;20442;-67
2023/08/04 00:11:02;;;;;;;1999.90;999.90;;;17.40;99.90;;;;;;4988330;28;20449;-68
2023/08/04 00:13:30;;;;;;;1999.90;999.90;;;17.30;99.90;;;;;;4990149;28;20442;-68
2023/08/04 00:16:05;;;;;;;1999.90;999.90;;;17.30;99.90;;;;;;4990144;28;20445;-68
2023/08/04 00:18:31;;;;;;;1999.90;999.90;;;17.20;99.90;;;;;;4988695;28;20441;-68
2023/08/04 00:20:59;;;;;;;1999.90;999.90;;;17.20;99.90;;;;;;4990623;28;20442;-68
2023/08/04 00:23:26;;;;;;;1999.90;999.90;;;17.30;99.90;;;;;;4987274;28;20929;-68
2023/08/04 00:25:53;;;;;;;1999.90;999.90;;;17.20;99.90;;;;;;4989954;28;20513;-68
2023/08/04 00:28:20;;;;;;;1999.90;999.90;;;17.20;99.90;;;;;;4990038;28;20434;-68
2023/08/04 00:30:46;;;;;;;1999.90;999.90;;;17.20;99.90;;;;;;4993240;28;20442;-68
2023/08/04 00:33:13;;;;;;;1999.90;999.90;;;17.20;99.90;;;;;;4991294;28;20442;-68
2023/08/04 00:35:40;;;;;;;1999.90;999.90;;;17.20;99.90;;;;;;4993022;28;20441;-69
2023/08/04 00:38:08;;;;;;;1999.90;999.90;;;17.20;99.90;;;;;;4991691;28;20450;-67
2023/08/04 00:40:36;;;;;;;1999.90;999.90;;;17.20;99.90;;;;;;4995266;28;20451;-66
2023/08/04 00:43:03;;;;;;;1999.90;999.90;;;17.10;99.90;;;;;;4990027;28;20434;-68
2023/08/04 00:45:31;;;;;;;1999.90;999.90;;;17.00;99.90;;;;;;4984715;28;20434;-68
2023/08/04 00:47:58;;;;;;;1999.90;999.90;;;17.00;99.90;;;;;;4990396;28;20434;-66
2023/08/04 00:50:26;;;;;;;1999.90;999.90;;;17.00;99.90;;;;;;4981624;28;20442;-68
2023/08/04 00:52:53;;;;;;;1999.90;999.90;;;16.90;99.90;;;;;;4990188;28;20434;-68
2023/08/04 00:55:22;;;;;;;1999.90;999.90;;;17.00;99.90;;;;;;4985005;28;20918;-68
2023/08/04 00:57:49;;;;;;;1999.90;999.90;;;17.00;99.90;;;;;;4988733;28;20434;-68
2023/08/04 01:00:16;;;;;;;1999.90;999.90;;;17.00;99.90;;;;;;4995419;28;20438;-68
2023/08/04 01:02:43;;;;;;;1999.90;999.90;;;17.00;99.90;;;;;;4989373;28;20522;-68
2023/08/04 01:05:10;;;;;;;1999.90;999.90;;;17.00;99.90;;;;;;4990910;28;20440;-68
2023/08/04 01:07:53;;;;;;;1999.90;999.90;;;16.90;99.90;;;;;;4990431;28;20805;-67
2023/08/04 01:10:28;;;;;;;1999.90;999.90;;;16.90;99.90;;;;;;4990642;28;20438;-68
2023/08/04 01:12:58;;;;;;;1999.90;999.90;;;16.90;99.90;;;;;;4985271;28;20443;-68
2023/08/04 01:15:26;;;;;;;1999.90;999.90;;;16.90;99.90;;;;;;4985406;28;20438;-68
2023/08/04 01:17:52;;;;;;;1999.90;999.90;;;16.90;99.90;;;;;;4995164;28;20489;-68
2023/08/04 01:20:19;;;;;;;1999.90;999.90;;;16.90;99.90;;;;;;4984259;28;20931;-68
2023/08/04 01:22:47;;;;;;;1999.90;999.90;;;17.10;99.90;;;;;;4988844;28;20438;-68
2023/08/04 01:25:14;;;;;;;1999.90;999.90;;;17.00;99.90;;;;;;4989253;28;20434;-68
2023/08/04 01:27:44;;;;;;;1999.90;999.90;;;17.10;99.90;;;;;;4995989;28;20436;-67
2023/08/04 01:30:16;;;;;;;1999.90;999.90;;;17.20;99.90;;;;;;4986169;28;20434;-68
2023/08/04 01:32:43;;;;;;;1999.90;999.90;;;17.30;99.90;;;;;;4990232;28;20438;-68
2023/08/04 01:35:11;;;;;;;1999.90;999.90;;;17.30;99.90;;;;;;4993414;28;20438;-68
2023/08/04 01:37:38;;;;;;;1999.90;999.90;;;17.40;99.90;;;;;;5001312;28;20428;-66
2023/08/04 01:40:07;;;;;;;1999.90;999.90;;;17.40;99.90;;;;;;4990916;28;20446;-66
2023/08/04 01:42:34;;;;;;;1999.90;999.90;;;17.40;99.90;;;;;;4991762;28;20443;-67
2023/08/04 01:45:01;;;;;;;1999.90;999.90;;;17.40;99.90;;;;;;4989925;28;20441;-68
2023/08/04 01:47:28;;;;;;;1999.90;999.90;;;17.40;99.90;;;;;;4987606;28;20918;-68
2023/08/04 01:49:54;;;;;;;1999.90;999.90;;;17.30;99.90;;;;;;4993346;28;20442;-67
2023/08/04 01:52:21;;;;;;;1999.90;999.90;;;17.30;99.90;;;;;;4989121;28;20949;-68
2023/08/04 01:54:48;;;;;;;1999.90;999.90;;;17.30;99.90;;;;;;4997094;28;20439;-68
2023/08/04 01:57:16;;;;;;;1999.90;999.90;;;17.40;99.90;;;;;;4994527;28;20446;-65
2023/08/04 01:59:43;;;;;;;1999.90;999.90;;;17.30;99.90;;;;;;4992656;28;20438;-67
2023/08/04 02:02:10;;;;;;;1999.90;999.90;;;17.20;99.90;;;;;;5000426;28;20449;-68
2023/08/04 02:04:36;;;;;;;1999.90;999.90;;;17.10;99.90;;;;;;4993358;28;20433;-68
2023/08/04 02:07:03;;;;;;;1999.90;999.90;;;17.00;99.90;;;;;;4991283;28;20434;-68
2023/08/04 02:09:30;;;;;;;1999.90;999.90;;;16.90;99.90;;;;;;4992736;28;20438;-67
2023/08/04 02:11:57;;;;;;;1999.90;999.90;;;16.90;99.90;;;;;;4992497;28;20937;-68
2023/08/04 02:14:27;;;;;;;1999.90;999.90;;;16.90;99.90;;;;;;4992673;28;20488;-68
2023/08/04 02:16:54;;;;;;;1999.90;999.90;;;16.90;99.90;;;;;;4988978;28;20439;-67
2023/08/04 02:19:22;;;;;;;1999.90;999.90;;;16.90;99.90;;;;;;4994798;28;20926;-68
2023/08/04 02:21:49;;;;;;;1999.90;999.90;;;16.90;99.90;;;;;;4989111;28;20525;-66
2023/08/04 02:24:15;;;;;;;1999.90;999.90;;;17.00;99.90;;;;;;4992738;28;20446;-68
2023/08/04 02:26:44;;;;;;;1999.90;999.90;;;17.00;99.90;;;;;;4990153;28;20434;-66
2023/08/04 02:29:11;;;;;;;1999.90;999.90;;;17.00;99.90;;;;;;4986558;28;20935;-68
2023/08/04 02:31:39;;;;;;;1999.90;999.90;;;17.00;99.90;;;;;;4994438;28;20434;-66
2023/08/04 02:34:06;;;;;;;1999.90;999.90;;;17.10;99.90;;;;;;4992945;28;20810;-66
2023/08/04 02:36:32;;;;;;;1999.90;999.90;;;17.00;99.90;;;;;;4993875;28;20450;-68
2023/08/04 02:38:59;;;;;;;1999.90;999.90;;;17.00;99.90;;;;;;4992063;28;20435;-68
2023/08/04 02:41:26;;;;;;;1999.90;999.90;;;17.00;99.90;;;;;;4991964;28;20474;-68
2023/08/04 02:43:53;;;;;;;1999.90;999.90;;;17.00;99.90;;;;;;4992035;28;20783;-69
2023/08/04 02:46:22;;;;;;;1999.90;999.90;;;16.90;99.90;;;;;;4997813;28;20957;-68
2023/08/04 02:48:50;;;;;;;1999.90;999.90;;;17.00;99.90;;;;;;4984750;28;20461;-68
2023/08/04 02:51:17;;;;;;;1999.90;999.90;;;17.10;99.90;;;;;;4996986;28;20434;-68
2023/08/04 02:53:45;;;;;;;1999.90;999.90;;;17.10;99.90;;;;;;4993936;28;20434;-68
2023/08/04 02:56:14;;;;;;;1999.90;999.90;;;17.10;99.90;;;;;;4994691;28;20457;-68
2023/08/04 02:58:42;;;;;;;1999.90;999.90;;;16.90;99.90;;;;;;4992399;28;20523;-66
2023/08/04 03:01:09;;;;;;;1999.90;999.90;;;16.90;99.90;;;;;;4996729;28;20948;-68
2023/08/04 03:03:36;;;;;;;1999.90;999.90;;;16.90;99.90;;;;;;4997935;28;20540;-67
2023/08/04 03:06:04;;;;;;;1999.90;999.90;;;16.80;99.90;;;;;;4994707;28;20457;-66
2023/08/04 03:08:32;;;;;;;1999.90;999.90;;;16.90;99.90;;;;;;4999140;28;20443;-67
2023/08/04 03:10:59;;;;;;;1999.90;999.90;;;16.90;99.90;;;;;;4996172;28;20442;-65
2023/08/04 03:13:26;;;;;;;1999.90;999.90;;;16.80;99.90;;;;;;4993799;28;20434;-67
2023/08/04 03:15:57;;;;;;;1999.90;999.90;;;16.90;99.90;;;;;;4997524;28;20487;-65
2023/08/04 03:18:24;;;;;;;1999.90;999.90;;;16.90;99.90;;;;;;4997203;28;20429;-68
2023/08/04 03:20:51;;;;;;;1999.90;999.90;;;16.80;99.90;;;;;;4999427;28;20448;-68
2023/08/04 03:23:19;;;;;;;1999.90;999.90;;;16.70;99.90;;;;;;4987917;28;20440;-67
2023/08/04 03:25:46;;;;;;;1999.90;999.90;;;16.60;99.90;;;;;;4985245;28;20438;-68
2023/08/04 03:28:14;;;;;;;1999.90;999.90;;;16.60;99.90;;;;;;4996593;28;20535;-68
2023/08/04 03:30:41;;;;;;;1999.90;999.90;;;16.50;99.90;;;;;;5001887;28;20943;-68
2023/08/04 03:33:08;;;;;;;1999.90;999.90;;;16.50;99.90;;;;;;4993804;28;20810;-67
2023/08/04 03:35:35;;;;;;;1999.90;999.90;;;16.50;99.90;;;;;;4991638;28;20453;-67
2023/08/04 03:38:02;;;;;;;1999.90;999.90;;;16.50;99.90;;;;;;4994958;28;20447;-67
2023/08/04 03:40:31;;;;;;;1999.90;999.90;;;16.40;99.90;;;;;;4995295;28;20433;-68
2023/08/04 03:42:57;;;;;;;1999.90;999.90;;;16.40;99.90;;;;;;4999444;28;20453;-66
2023/08/04 03:45:24;;;;;;;1999.90;999.90;;;16.50;99.90;;;;;;5002541;28;20948;-68
2023/08/04 03:47:51;;;;;;;1999.90;999.90;;;16.60;99.90;;;;;;4996170;28;20445;-68
2023/08/04 03:50:17;;;;;;;1999.90;999.90;;;16.70;99.90;;;;;;4996042;28;20441;-68
2023/08/04 03:52:44;;;;;;;1999.90;999.90;;;16.70;99.90;;;;;;4988865;28;20434;-68
2023/08/04 03:55:11;;;;;;;1999.90;999.90;;;16.70;99.90;;;;;;4993139;28;20446;-68
2023/08/04 03:57:39;;;;;;;1999.90;999.90;;;16.70;99.90;;;;;;4999177;28;20433;-68
2023/08/04 04:00:07;;;;;;;1999.90;999.90;;;16.80;99.90;;;;;;4993996;28;20442;-66
2023/08/04 04:02:34;;;;;;;1999.90;999.90;;;16.80;99.90;;;;;;4976106;28;20531;-68
2023/08/04 04:05:02;;;;;;;1999.90;999.90;;;16.70;99.90;;;;;;4997020;28;20434;-67
2023/08/04 04:07:29;;;;;;;1999.90;999.90;;;16.70;99.90;;;;;;5005264;28;20437;-68
2023/08/04 04:09:56;;;;;;;1999.90;999.90;;;16.70;99.90;;;;;;4990621;28;20441;-68
2023/08/04 04:12:22;;;;;;;1999.90;999.90;;;16.60;99.90;;;;;;4988080;28;20446;-68
2023/08/04 04:14:50;;;;;;;1999.90;999.90;;;16.50;99.90;;;;;;4983042;28;20939;-66
2023/08/04 04:17:17;;;;;;;1999.90;999.90;;;16.50;99.90;;;;;;4994777;28;20440;-64
2023/08/04 04:19:44;;;;;;;1999.90;999.90;;;16.40;99.90;;;;;;4996263;28;20439;-68
2023/08/04 04:22:11;;;;;;;1999.90;999.90;;;16.60;99.90;;;;;;4989994;28;20940;-68
2023/08/04 04:24:38;;;;;;;1999.90;999.90;;;16.60;99.90;;;;;;4997326;28;20434;-67
2023/08/04 04:27:05;;;;;;;1999.90;999.90;;;16.70;99.90;;;;;;4990052;28;20438;-68
2023/08/04 04:29:32;;;;;;;1999.90;999.90;;;16.70;99.90;;;;;;5003047;28;20786;-68
2023/08/04 04:32:00;;;;;;;1999.90;999.90;;;16.90;99.90;;;;;;4986980;28;20465;-66
2023/08/04 04:34:27;;;;;;;1999.90;999.90;;;16.90;99.90;;;;;;4995108;28;20938;-68
2023/08/04 04:36:54;;;;;;;1999.90;999.90;;;17.00;99.90;;;;;;4999674;28;20916;-68
2023/08/04 04:39:21;;;;;;;1999.90;999.90;;;17.00;99.90;;;;;;4994544;28;20434;-68
2023/08/04 04:41:48;;;;;;;1999.90;999.90;;;17.10;99.90;;;;;;4983136;28;20439;-68
2023/08/04 04:44:15;;;;;;;1999.90;999.90;;;17.40;99.90;;;;;;4994526;28;20460;-68
2023/08/04 04:46:41;;;;;;;1999.90;999.90;;;17.60;99.90;;;;;;4996274;28;20445;-67
2023/08/04 04:49:09;;;;;;;1999.90;999.90;;;17.70;99.90;;;;;;4996125;28;20457;-68
2023/08/04 04:51:36;;;;;;;1999.90;999.90;;;17.70;99.90;;;;;;4992791;28;20434;-67
2023/08/04 04:54:03;;;;;;;1999.90;999.90;;;17.60;99.90;;;;;;4991386;28;21200;-67
2023/08/04 04:56:30;;;;;;;1999.90;999.90;;;17.60;99.90;;;;;;4999367;28;20526;-68
2023/08/04 04:58:56;;;;;;;1999.90;999.90;;;17.50;99.90;;;;;;4999792;28;20442;-68
2023/08/04 05:01:23;;;;;;;1999.90;999.90;;;17.40;99.90;;;;;;4995272;28;20798;-65
2023/08/04 05:03:50;;;;;;;1999.90;999.90;;;17.30;99.90;;;;;;4989002;28;20441;-68
2023/08/04 05:06:18;;;;;;;1999.90;999.90;;;17.30;99.90;;;;;;4991763;28;20434;-68
2023/08/04 05:08:45;;;;;;;1999.90;999.90;;;17.30;99.90;;;;;;4987868;28;20438;-67
2023/08/04 05:11:11;;;;;;;1999.90;999.90;;;17.40;99.90;;;;;;5001076;28;20889;-67
2023/08/04 05:13:40;;;;;;;1999.90;999.90;;;17.30;99.90;;;;;;4997320;28;20434;-66
2023/08/04 05:16:07;;;;;;;1999.90;999.90;;;17.40;99.90;;;;;;5004133;28;20522;-68
2023/08/04 05:18:34;;;;;;;1999.90;999.90;;;17.40;99.90;;;;;;4992012;28;20497;-66
2023/08/04 05:21:00;;;;;;;1999.90;999.90;;;17.50;99.90;;;;;;4995095;28;20800;-67
2023/08/04 05:23:28;;;;;;;1999.90;999.90;;;17.50;99.90;;;;;;4990175;28;20432;-67
2023/08/04 05:25:55;;;;;;;1999.90;999.90;;;17.60;99.90;;;;;;4999018;28;20443;-66
2023/08/04 05:28:24;;;;;;;1999.90;999.90;;;17.50;99.90;;;;;;4990736;28;20430;-67
2023/08/04 05:30:55;;;;;;;1999.90;999.90;;;17.70;99.90;;;;;;4997511;28;20439;-68
2023/08/04 05:33:21;;;;;;;1999.90;999.90;;;17.70;99.90;;;;;;4999039;28;20959;-66
2023/08/04 05:35:48;;;;;;;1999.90;999.90;;;17.80;99.90;;;;;;5001736;28;20428;-65
2023/08/04 05:38:15;;;;;;;1999.90;999.90;;;18.10;99.90;;;;;;4993420;28;20948;-68
2023/08/04 05:40:45;;;;;;;1999.90;999.90;;;18.30;99.90;;;;;;4993679;28;20428;-67
2023/08/04 05:43:12;;;;;;;1999.90;999.90;;;18.40;99.90;;;;;;4996454;28;20441;-68
2023/08/04 05:45:40;;;;;;;1999.90;999.90;;;18.70;99.90;;;;;;4997072;28;20802;-66
2023/08/04 05:48:07;;;;;;;1999.90;999.90;;;18.80;99.90;;;;;;4998611;28;20770;-66
2023/08/04 05:50:34;;;;;;;1999.90;999.90;;;19.20;99.90;;;;;;4996049;28;20441;-63
2023/08/04 05:53:01;;;;;;;1999.90;999.90;;;18.60;99.90;;;;;;4993919;28;20909;-64
2023/08/04 05:55:28;;;;;;;1999.90;999.90;;;18.60;99.90;;;;;;4999159;28;20439;-68
2023/08/04 05:57:57;;;;;;;1999.90;999.90;;;18.60;99.90;;;;;;5006415;28;20436;-68
2023/08/04 06:00:24;;;;;;;1999.90;999.90;;;19.00;99.90;;;;;;4992383;28;20437;-66
2023/08/04 06:02:51;;;;;;;1999.90;999.90;;;19.20;99.90;;;;;;4992038;28;20441;-65
2023/08/04 06:05:18;;;;;;;1999.90;999.90;;;19.30;99.90;;;;;;4987507;28;20501;-64
2023/08/04 06:07:45;;;;;;;1999.90;999.90;;;19.30;99.90;;;;;;4999305;28;20436;-66
2023/08/04 06:10:12;;;;;;;1999.90;999.90;;;19.20;99.90;;;;;;4998226;28;20440;-65
2023/08/04 06:12:39;;;;;;;1999.90;999.90;;;19.10;99.90;;;;;;4995385;28;20553;-65
2023/08/04 06:15:08;;;;;;;1999.90;999.90;;;19.10;99.90;;;;;;4994033;28;20928;-65
2023/08/04 06:17:35;;;;;;;1999.90;999.90;;;19.30;99.90;;;;;;4993536;28;20438;-64
2023/08/04 06:20:01;;;;;;;1999.90;999.90;;;19.50;99.90;;;;;;4990366;28;20509;-64
2023/08/04 06:22:28;;;;;;;1999.90;999.90;;;19.60;99.90;;;;;;5002094;28;20432;-66
2023/08/04 06:24:55;;;;;;;1999.90;999.90;;;19.70;99.90;;;;;;5002350;28;20481;-66
2023/08/04 06:27:22;;;;;;;1999.90;999.90;;;20.10;99.90;;;;;;4996709;28;20449;-66
2023/08/04 06:29:48;;;;;;;1999.90;999.90;;;20.20;99.90;;;;;;5000201;28;20431;-65
2023/08/04 06:32:17;;;;;;;1999.90;999.90;;;20.50;99.90;;;;;;4993639;28;20453;-64
2023/08/04 06:34:43;;;;;;;1999.90;999.90;;;20.90;99.90;;;;;;4992530;28;20445;-66
2023/08/04 06:37:10;;;;;;;1999.90;999.90;;;20.80;99.90;;;;;;4997183;28;20808;-64
2023/08/04 06:39:37;;;;;;;1999.90;999.90;;;21.10;99.90;;;;;;4997533;28;20439;-64
2023/08/04 06:42:04;;;;;;;1999.90;999.90;;;21.30;99.90;;;;;;4986793;28;20438;-65
2023/08/04 06:44:31;;;;;;;1999.90;999.90;;;21.30;99.90;;;;;;4994391;28;20450;-65
2023/08/04 06:46:57;;;;;;;1999.90;999.90;;;21.50;99.90;;;;;;4996840;28;20438;-66
2023/08/04 06:49:26;;;;;;;1999.90;999.90;;;21.50;99.90;;;;;;4992413;28;20438;-65
2023/08/04 06:51:52;;;;;;;1999.90;999.90;;;21.30;99.90;;;;;;4994550;28;20799;-65
2023/08/04 06:54:19;;;;;;;1999.90;999.90;;;21.10;99.90;;;;;;4987829;28;20430;-66
2023/08/04 06:56:46;;;;;;;1999.90;999.90;;;21.20;99.90;;;;;;4990037;28;20438;-65
2023/08/04 06:59:13;;;;;;;1999.90;999.90;;;21.20;99.90;;;;;;4992618;28;20431;-65
2023/08/04 07:01:40;;;;;;;1999.90;999.90;;;21.40;99.90;;;;;;4993242;28;20438;-64
2023/08/04 07:04:06;;;;;;;1999.90;999.90;;;21.30;99.90;;;;;;4991603;28;20438;-65
2023/08/04 07:06:35;;;;;;;1999.90;999.90;;;21.30;99.90;;;;;;4987299;28;20439;-66
2023/08/04 07:09:02;;;;;;;1999.90;999.90;;;21.00;99.90;;;;;;4981164;28;20428;-65
2023/08/04 07:11:28;;;;;;;1999.90;999.90;;;21.00;99.90;;;;;;4973413;28;20443;-66
2023/08/04 07:13:55;;;;;;;1999.90;999.90;;;21.20;99.90;;;;;;4977666;28;20815;-66
2023/08/04 07:16:22;;;;;;;1999.90;999.90;;;21.50;99.90;;;;;;4976411;28;20426;-66
2023/08/04 07:18:49;;;;;;;1999.90;999.90;;;21.40;99.90;;;;;;4992259;28;20457;-65
2023/08/04 07:21:16;;;;;;;1999.90;999.90;;;21.40;99.90;;;;;;4992418;28;20429;-66
2023/08/04 07:23:44;;;;;;;1999.90;999.90;;;21.50;99.90;;;;;;4992820;28;20425;-64
2023/08/04 07:26:11;;;;;;;1999.90;999.90;;;22.00;99.90;;;;;;4991198;28;20794;-66
2023/08/04 07:28:38;;;;;;;1999.90;999.90;;;22.20;99.90;;;;;;4973560;28;20412;-64
2023/08/04 07:31:05;;;;;;;1999.90;999.90;;;22.30;99.90;;;;;;4972168;28;20416;-64
2023/08/04 07:33:32;;;;;;;1999.90;999.90;;;22.60;99.90;;;;;;4972937;28;20413;-64
2023/08/04 07:36:00;;;;;;;1999.90;999.90;;;22.30;99.90;;;;;;4991873;28;20418;-65
2023/08/04 07:38:28;;;;;;;1999.90;999.90;;;22.00;99.90;;;;;;4976334;28;20945;-65
2023/08/04 07:40:56;;;;;;;1999.90;999.90;;;22.10;99.90;;;;;;4986917;28;20415;-66
2023/08/04 07:43:23;;;;;;;1999.90;999.90;;;22.00;99.90;;;;;;4992278;28;20422;-64
2023/08/04 07:45:50;;;;;;;1999.90;999.90;;;22.40;99.90;;;;;;4996496;28;20440;-65
2023/08/04 07:48:17;;;;;;;1999.90;999.90;;;22.80;99.90;;;;;;4998818;28;20436;-66
2023/08/04 07:50:48;;;;;;;1999.90;999.90;;;23.10;99.90;;;;;;4982685;28;20437;-66
2023/08/04 07:53:15;;;;;;;1999.90;999.90;;;23.10;99.90;;;;;;4979657;28;20529;-67
2023/08/04 07:55:42;;;;;;;1999.90;999.90;;;23.30;99.90;;;;;;4989559;28;20434;-66
2023/08/04 07:58:10;;;;;;;1999.90;999.90;;;23.10;99.90;;;;;;4988018;28;20449;-66
2023/08/04 08:00:37;;;;;;;1999.90;999.90;;;23.00;99.90;;;;;;4991785;28;20431;-66
2023/08/04 08:03:04;;;;;;;1999.90;999.90;;;23.10;99.90;;;;;;4992465;28;20418;-65
2023/08/04 08:05:31;;;;;;;1999.90;999.90;;;23.20;99.90;;;;;;4991449;28;20442;-66
2023/08/04 08:07:57;;;;;;;1999.90;999.90;;;23.20;99.90;;;;;;4976896;28;21082;-63
2023/08/04 08:10:24;;;;;;;1999.90;999.90;;;23.00;99.90;;;;;;4973432;28;20408;-64
2023/08/04 08:12:51;;;;;;;1999.90;999.90;;;22.70;99.90;;;;;;4992174;28;21284;-66
2023/08/04 08:15:19;;;;;;;1999.90;999.90;;;22.80;99.90;;;;;;4992520;28;20421;-65
2023/08/04 08:17:46;;;;;;;1999.90;999.90;;;22.80;99.90;;;;;;4991207;28;20443;-66
2023/08/04 08:20:13;;;;;;;1999.90;999.90;;;22.80;99.90;;;;;;4999830;28;20527;-64
2023/08/04 08:22:40;;;;;;;1999.90;999.90;;;22.50;99.90;;;;;;4987657;28;20505;-65
2023/08/04 08:25:07;;;;;;;1999.90;999.90;;;22.20;99.90;;;;;;4994341;28;20464;-65
2023/08/04 08:27:34;;;;;;;1999.90;999.90;;;22.10;99.90;;;;;;4994554;28;20497;-64
2023/08/04 08:30:01;;;;;;;1999.90;999.90;;;22.00;99.90;;;;;;4990746;28;20469;-65
2023/08/04 08:32:29;;;;;;;1999.90;999.90;;;22.00;99.90;;;;;;4991134;28;20422;-69
2023/08/04 08:34:56;;;;;;;1999.90;999.90;;;22.20;99.90;;;;;;4990265;28;20810;-68
2023/08/04 08:37:22;;;;;;;1999.90;999.90;;;22.10;99.90;;;;;;4990831;28;20419;-65
2023/08/04 08:39:49;;;;;;;1999.90;999.90;;;21.80;99.90;;;;;;4990496;28;20429;-65
2023/08/04 08:42:16;;;;;;;1999.90;999.90;;;22.00;99.90;;;;;;4989336;28;20434;-65
2023/08/04 08:44:43;;;;;;;1999.90;999.90;;;22.20;99.90;;;;;;4988161;28;20554;-64
2023/08/04 08:47:10;;;;;;;1999.90;999.90;;;21.90;99.90;;;;;;4986812;28;20438;-65
2023/08/04 08:49:46;;;;;;;1999.90;999.90;;;21.60;99.90;;;;;;4991289;28;20525;-65
2023/08/04 08:52:13;;;;;;;1999.90;999.90;;;21.20;99.90;;;;;;4997594;28;20482;-65
2023/08/04 08:54:40;;;;;;;1999.90;999.90;;;21.30;99.90;;;;;;4990756;28;20802;-66
2023/08/04 08:57:07;;;;;;;1999.90;999.90;;;21.50;99.90;;;;;;4989616;28;20922;-65
2023/08/04 08:59:34;;;;;;;1999.90;999.90;;;21.50;99.90;;;;;;4988560;28;20434;-64
2023/08/04 09:02:02;;;;;;;1999.90;999.90;;;21.40;99.90;;;;;;4993494;28;20441;-66
2023/08/04 09:04:32;;;;;;;1999.90;999.90;;;21.70;99.90;;;;;;4994504;28;20438;-65
2023/08/04 09:07:00;;;;;;;1999.90;999.90;;;21.70;99.90;;;;;;4991278;28;20434;-66
2023/08/04 09:09:27;;;;;;;1999.90;999.90;;;22.00;99.90;;;;;;4982948;28;20443;-66
2023/08/04 09:11:55;;;;;;;1999.90;999.90;;;21.90;99.90;;;;;;4990710;28;20425;-66
2023/08/04 09:14:22;;;;;;;1999.90;999.90;;;21.80;99.90;;;;;;4990279;28;20421;-66
2023/08/04 09:16:49;;;;;;;1999.90;999.90;;;21.70;99.90;;;;;;4982553;28;20445;-67
2023/08/04 09:19:16;;;;;;;1999.90;999.90;;;22.00;99.90;;;;;;4973570;28;20447;-66
2023/08/04 09:21:43;;;;;;;1999.90;999.90;;;22.20;99.90;;;;;;4972026;28;20416;-69
2023/08/04 09:24:13;;;;;;;1999.90;999.90;;;22.20;99.90;;;;;;4971403;28;20431;-69
2023/08/04 09:26:45;;;;;;;1999.90;999.90;;;22.10;99.90;;;;;;4989822;28;20434;-66
2023/08/04 09:29:13;;;;;;;1999.90;999.90;;;22.00;99.90;;;;;;4981707;28;20461;-69
2023/08/04 09:31:41;;;;;;;1999.90;999.90;;;22.00;99.90;;;;;;4971280;28;20483;-69
2023/08/04 09:34:09;;;;;;;1999.90;999.90;;;21.90;99.90;;;;;;4971268;28;20422;-68
2023/08/04 09:36:39;;;;;;;1999.90;999.90;;;22.00;99.90;;;;;;4981486;28;20441;-68
2023/08/04 09:39:06;;;;;;;1999.90;999.90;;;22.30;99.90;;;;;;4974508;28;20425;-69
2023/08/04 09:41:38;;;;;;;1999.90;999.90;;;22.40;99.90;;;;;;4971196;28;20420;-69
2023/08/04 09:44:06;;;;;;;1999.90;999.90;;;22.50;99.90;;;;;;4970881;28;20416;-67
2023/08/04 09:46:38;;;;;;;1999.90;999.90;;;22.40;99.90;;;;;;4988046;28;20459;-69
2023/08/04 09:49:05;;;;;;;1999.90;999.90;;;22.20;99.90;;;;;;4974955;28;20428;-69
2023/08/04 09:51:40;;;;;;;1999.90;999.90;;;21.90;99.90;;;;;;4971217;28;20423;-66
2023/08/04 09:54:06;;;;;;;1999.90;999.90;;;21.70;99.90;;;;;;4972792;28;20412;-66
2023/08/04 09:56:35;;;;;;;1999.90;999.90;;;21.10;99.90;;;;;;4990070;28;20938;-66
2023/08/04 09:59:03;;;;;;;1999.90;999.90;;;21.10;99.90;;;;;;4993401;28;20581;-66
2023/08/04 10:01:31;;;;;;;1999.90;999.90;;;21.10;99.90;;;;;;4975494;28;20421;-67
2023/08/04 10:03:58;;;;;;;1999.90;999.90;;;21.20;99.90;;;;;;4974745;28;20503;-67
2023/08/04 10:06:26;;;;;;;1999.90;999.90;;;21.40;99.90;;;;;;4990042;28;20806;-69
2023/08/04 10:08:56;;;;;;;1999.90;999.90;;;21.70;99.90;;;;;;4979985;28;20416;-69
2023/08/04 10:11:23;;;;;;;1999.90;999.90;;;22.00;99.90;;;;;;4974200;28;21236;-69
2023/08/04 10:13:54;;;;;;;1999.90;999.90;;;22.30;99.90;;;;;;4974080;28;20824;-69
2023/08/04 10:16:24;;;;;;;1999.90;999.90;;;22.80;99.90;;;;;;4988162;28;20439;-69
2023/08/04 10:18:52;;;;;;;1999.90;999.90;;;22.80;99.90;;;;;;4992692;28;20442;-69
2023/08/04 10:21:27;;;;;;;1999.90;999.90;;;22.70;99.90;;;;;;4976529;28;20815;-69
2023/08/04 10:23:55;;;;;;;1999.90;999.90;;;22.80;99.90;;;;;;4974146;28;20417;-69
2023/08/04 10:26:22;;;;;;;1999.90;999.90;;;22.60;99.90;;;;;;4988539;28;20524;-69
2023/08/04 10:29:08;;;;;;;1999.90;999.90;;;22.40;99.90;;;;;;4980261;28;20895;-66
2023/08/04 10:31:45;;;;;;;1999.90;999.90;;;22.50;99.90;;;;;;4975150;28;20832;-66
2023/08/04 10:34:20;;;;;;;1999.90;999.90;;;22.50;99.90;;;;;;4974627;28;20833;-66
2023/08/04 10:37:00;;;;;;;1999.90;999.90;;;22.40;99.90;;;;;;4992182;28;20434;-66
2023/08/04 10:39:28;;;;;;;1999.90;999.90;;;22.40;99.90;;;;;;4975645;28;20423;-66
2023/08/04 10:41:55;;;;;;;1999.90;999.90;;;22.60;99.90;;;;;;4974474;28;20427;-66
2023/08/04 10:44:25;;;;;;;1999.90;999.90;;;22.90;99.90;;;;;;4973786;28;20443;-66
2023/08/04 10:46:52;;;;;;;1999.90;999.90;;;23.00;99.90;;;;;;5021460;23;20874;-70
2023/08/04 10:49:19;;;;;;;1999.90;999.90;;;23.40;99.90;;;;;;4990560;28;20410;-69
2023/08/04 10:51:46;;;;;;;1999.90;999.90;;;23.60;99.90;;;;;;4993078;28;20414;-70
2023/08/04 10:54:13;;;;;;;1999.90;999.90;;;23.90;99.90;;;;;;4992749;28;20794;-69
2023/08/04 10:56:39;;;;;;;1999.90;999.90;;;23.80;99.90;;;;;;4992792;28;20445;-70
2023/08/04 10:59:08;;;;;;;1999.90;999.90;;;23.40;99.90;;;;;;4993001;28;20433;-70
2023/08/04 11:01:37;;;;;;;1999.90;999.90;;;23.40;99.90;;;;;;4996919;28;20436;-69
2023/08/04 11:04:04;;;;;;;1999.90;999.90;;;23.10;99.90;;;;;;4992354;28;20521;-67
2023/08/04 11:06:31;;;;;;;1999.90;999.90;;;22.80;99.90;;;;;;4996330;28;20439;-67
2023/08/04 11:08:58;;;;;;;1999.90;999.90;;;22.60;99.90;;;;;;4993294;28;20435;-68
2023/08/04 11:11:26;;;;;;;1999.90;999.90;;;23.00;99.90;;;;;;4999582;28;20935;-69
2023/08/04 11:13:56;;;;;;;1999.90;999.90;;;23.10;99.90;;;;;;4998742;28;20830;-69
2023/08/04 11:16:24;;;;;;;1999.90;999.90;;;23.40;99.90;;;;;;5001170;28;20457;-68
2023/08/04 11:18:53;;;;;;;1999.90;999.90;;;23.70;99.90;;;;;;4994052;28;20501;-69
2023/08/04 11:21:20;;;;;;;1999.90;999.90;;;23.60;99.90;;;;;;4997391;28;20428;-68
2023/08/04 11:23:46;;;;;;;1999.90;999.90;;;23.70;99.90;;;;;;4993289;28;20956;-69
2023/08/04 11:26:15;;;;;;;1999.90;999.90;;;23.90;99.90;;;;;;5004379;28;20829;-67
2023/08/04 11:28:42;;;;;;;1999.90;999.90;;;23.70;99.60;;;;;;5002118;28;21173;-68
2023/08/04 11:31:10;;;;;;;1999.90;999.90;;;23.30;99.90;;;;;;4991824;28;20430;-68
2023/08/04 11:33:44;;;;;;;1999.90;999.90;;;23.40;99.90;;;;;;4992718;28;20461;-69
2023/08/04 11:36:12;;;;;;;1999.90;999.90;;;23.40;99.90;;;;;;4995345;28;20506;-69
2023/08/04 11:38:39;;;;;;;1999.90;999.90;;;23.50;99.90;;;;;;5000393;28;20441;-68
2023/08/04 11:41:09;;;;;;;1999.90;999.90;;;23.50;99.10;;;;;;5000033;28;20428;-69
2023/08/04 11:43:36;;;;;;;1999.90;999.90;;;23.40;99.00;;;;;;4992204;28;20954;-68
2023/08/04 11:46:06;;;;;;;1999.90;999.90;;;23.10;99.90;;;;;;4996550;28;20436;-69
2023/08/04 11:48:35;;;;;;;1999.90;999.90;;;22.80;99.90;;;;;;5006452;28;20433;-67
2023/08/04 11:51:02;;;;;;;1999.90;999.90;;;23.00;99.90;;;;;;4999697;28;20530;-69
2023/08/04 11:53:30;;;;;;;1999.90;999.90;;;22.80;99.90;;;;;;4992089;28;20430;-68
2023/08/04 11:55:58;;;;;;;1999.90;999.90;;;23.10;99.90;;;;;;4992825;28;20434;-69
2023/08/04 11:58:33;;;;;;;1999.90;999.90;;;23.00;99.90;;;;;;4998202;28;20444;-69
2023/08/04 12:01:00;;;;;;;1999.90;999.90;;;22.90;99.90;;;;;;4993649;28;20430;-68